Archival Weather

Sydney Intl

Sydney, Australia (YSSY)

Report from: Sunday, February 25, 2024 2:00 AM AEDT
Current time: Thursday, April 25, 2024 5:02 AM AEST

Current weather – Weather history – Daily summaries
Weather forecast

Temperature19.0°C (66.2°F)
Dew point15.0°C (59.0°F)
Winds 9 kts (4.6 m/s, 10.4 mph) Southwest (220°)
Visibility6.2 mi. (10 km)
Clouds Scattered clouds 3,200 ft. (975 m)
Ceiling: Broken clouds 4,300 ft. (1,311 m)
Altimeter30.09 in.Hg (1019 mB)
Relative humidity78 %
Density altitude511 ft. (156 m)
Remarks Fully automated report
Flight conditions Visual Meteorological Conditions
Raw dataYSSY 241500Z AUTO 22009KT 9999 // SCT032 BKN043 19/15 Q1019
An error has occurred. This application may no longer respond until reloaded. Reload 🗙